Terminal Aerodrome Forecast
Issued by NWS

Home | Current Version | Previous Version | Text Only | Print | Product List | Glossary On
Versions: 1 2 3 4 5 6 7 8 9 10 11 12 13 14 15
000
FTUS45 KVEF 250857 AAA
TAFHND
TAF AMD
KHND 250857Z 2509/2606 16007KT P6SM SCT150 BKN250
     FM251200 23010G18KT P6SM VCSH SCT060 BKN100
      TEMPO 2512/2515 -SHRA BKN060 OVC100
     FM251700 30010KT P6SM VCSH BKN080
     FM260200 24009KT P6SM SCT080=

USA.gov is the U.S. government's official web portal to all federal, state and local government web resources and services.